Time;durP1;ratioP1;P1;durP2;ratioP2;P2;SDS_P1;SDS_P2;PMS_P1;PMS_P2;Temp;Humidity;BMP_temperature;BMP_pressure;BME280_temperature;BME280_humidity;BME280_pressure;Samples;Min_cycle;Max_cycle;Signal;HPM_P1;HPM_P2
2023/04/14 00:01:15;;;;;;;;;;;;;;;15.35;35.84;94752.53;10530016;28;1444;-59
2023/04/14 00:06:16;;;;;;;;;;;;;;;15.34;36.02;94755.44;10527700;28;1480;-59
2023/04/14 00:11:16;;;;;;;;;;;;;;;15.34;35.91;94744.97;10512301;28;1910;-59
2023/04/14 00:16:16;;;;;;;;;;;;;;;15.33;35.75;94736.34;10521906;28;1354;-59
2023/04/14 00:21:17;;;;;;;;;;;;;;;15.33;35.88;94738.22;10509704;28;1405;-59
2023/04/14 00:26:19;;;;;;;;;;;;;;;15.32;35.95;94736.63;10520856;28;1097;-59
2023/04/14 00:31:20;;;;;;;;;;;;;;;15.33;35.88;94735.59;10506803;28;1977;-59
2023/04/14 00:36:21;;;;;;;;;;;;;;;15.31;35.89;94733.22;10532996;28;1146;-59
2023/04/14 00:41:23;;;;;;;;;;;;;;;15.31;36.00;94741.06;10529780;28;1428;-59
2023/04/14 00:46:25;;;;;;;;;;;;;;;15.31;35.87;94730.63;10540130;28;1127;-59
2023/04/14 00:51:26;;;;;;;;;;;;;;;15.32;36.00;94734.03;10536891;28;1910;-59
2023/04/14 00:56:28;;;;;;;;;;;;;;;15.31;35.79;94735.09;10515163;28;1142;-60
2023/04/14 01:01:28;;;;;;;;;;;;;;;15.31;35.83;94737.69;10522558;28;1705;-59
2023/04/14 01:06:29;;;;;;;;;;;;;;;15.30;35.85;94728.28;10509159;28;1471;-59
2023/04/14 01:11:30;;;;;;;;;;;;;;;15.30;36.00;94743.94;10533229;28;1910;-59
2023/04/14 01:16:31;;;;;;;;;;;;;;;15.29;36.05;94737.94;10528076;28;1465;-59
2023/04/14 01:21:34;;;;;;;;;;;;;;;15.31;36.01;94745.53;10511968;28;1421;-59
2023/04/14 01:26:34;;;;;;;;;;;;;;;15.29;36.01;94745.78;10531993;28;1244;-59
2023/04/14 01:31:41;;;;;;;;;;;;;;;15.28;35.86;94756.47;10516563;28;1918;-58
2023/04/14 01:36:42;;;;;;;;;;;;;;;15.28;35.87;94753.88;10503252;28;1064;-59
2023/04/14 01:41:45;;;;;;;;;;;;;;;15.27;35.90;94760.16;10513726;28;1519;-59
2023/04/14 01:46:45;;;;;;;;;;;;;;;15.28;35.88;94740.81;10537759;28;1971;-59
2023/04/14 01:51:46;;;;;;;;;;;;;;;15.28;35.89;94748.66;10534410;28;1420;-59
2023/04/14 01:56:47;;;;;;;;;;;;;;;15.26;35.83;94751.53;10519262;28;1131;-58
2023/04/14 02:01:49;;;;;;;;;;;;;;;15.26;35.84;94748.13;10532607;28;1705;-59
2023/04/14 02:06:49;;;;;;;;;;;;;;;15.27;35.90;94749.72;10513940;28;1970;-59
2023/04/14 02:11:50;;;;;;;;;;;;;;;15.27;35.92;94734.03;10515003;28;1448;-60
2023/04/14 02:16:52;;;;;;;;;;;;;;;15.27;35.90;94736.66;10536534;28;1158;-60
2023/04/14 02:21:52;;;;;;;;;;;;;;;15.26;35.96;94735.09;10508054;28;1752;-59
2023/04/14 02:27:13;;;;;;;;;;;;;;;15.26;35.83;94730.66;10529001;28;1963;-59
2023/04/14 02:32:18;;;;;;;;;;;;;;;15.27;35.80;94731.44;10531918;28;1046;-59
2023/04/14 02:37:20;;;;;;;;;;;;;;;15.25;35.95;94721.22;10514655;28;1456;-59
2023/04/14 02:42:21;;;;;;;;;;;;;;;15.23;36.04;94714.72;10513832;28;1559;-59
2023/04/14 02:47:26;;;;;;;;;;;;;;;15.24;35.92;94700.63;10519696;28;1972;-59
2023/04/14 02:52:28;;;;;;;;;;;;;;;15.26;35.96;94698.53;10537967;28;1405;-59
2023/04/14 02:57:28;;;;;;;;;;;;;;;15.25;36.07;94694.38;10535875;28;1051;-59
2023/04/14 03:02:29;;;;;;;;;;;;;;;15.24;35.98;94695.41;10526465;28;1432;-59
2023/04/14 03:07:30;;;;;;;;;;;;;;;15.22;35.92;94694.88;10508561;28;1944;-59
2023/04/14 03:12:31;;;;;;;;;;;;;;;15.22;35.99;94710.53;10530920;28;1563;-59
2023/04/14 03:17:32;;;;;;;;;;;;;;;15.22;35.98;94700.91;10534248;28;1130;-60
2023/04/14 03:22:37;;;;;;;;;;;;;;;15.23;36.08;94691.22;10490617;28;1485;-59
2023/04/14 03:27:47;;;;;;;;;;;;;;;15.21;35.96;94693.31;10508913;28;1933;-59
2023/04/14 03:32:48;;;;;;;;;;;;;;;15.23;35.91;94697.22;10521785;28;1143;-59
2023/04/14 03:37:50;;;;;;;;;;;;;;;15.22;35.99;94682.63;10519330;28;1440;-59
2023/04/14 03:42:50;;;;;;;;;;;;;;;15.22;35.84;94679.22;10532137;28;1519;-59
2023/04/14 03:47:54;;;;;;;;;;;;;;;15.22;36.02;94674.78;10518153;28;1906;-60
2023/04/14 03:52:59;;;;;;;;;;;;;;;15.23;35.82;94670.34;10523541;28;1308;-59
2023/04/14 03:58:00;;;;;;;;;;;;;;;15.22;35.93;94676.63;10532619;28;1516;-59
2023/04/14 04:03:01;;;;;;;;;;;;;;;15.22;36.09;94692.28;10533941;28;1087;-59
2023/04/14 04:08:03;;;;;;;;;;;;;;;15.21;35.87;94698.53;10503906;28;1902;-59
2023/04/14 04:13:07;;;;;;;;;;;;;;;15.21;35.98;94699.31;10514180;28;1460;-59
2023/04/14 04:18:08;;;;;;;;;;;;;;;15.20;35.99;94697.78;10530845;28;1522;-59
2023/04/14 04:23:08;;;;;;;;;;;;;;;15.21;35.87;94688.09;10515466;28;1166;-59
2023/04/14 04:28:09;;;;;;;;;;;;;;;15.20;36.03;94676.88;10525072;28;1923;-59
2023/04/14 04:33:10;;;;;;;;;;;;;;;15.20;36.15;94669.06;10522236;28;1115;-59
2023/04/14 04:38:11;;;;;;;;;;;;;;;15.21;35.90;94673.22;10526977;28;1440;-58
2023/04/14 04:43:11;;;;;;;;;;;;;;;15.19;36.04;94684.97;10518263;28;1496;-59
2023/04/14 04:48:12;;;;;;;;;;;;;;;15.21;35.91;94701.13;10534237;28;1902;-59
2023/04/14 04:53:13;;;;;;;;;;;;;;;15.20;36.03;94699.59;10539518;28;1091;-59
2023/04/14 04:58:13;;;;;;;;;;;;;;;15.21;35.87;94714.19;10533358;28;1412;-59
2023/04/14 05:03:15;;;;;;;;;;;;;;;15.21;35.83;94727.25;10539827;28;1087;-59
2023/04/14 05:08:16;;;;;;;;;;;;;;;15.20;35.94;94741.34;10522805;28;1965;-60
2023/04/14 05:13:17;;;;;;;;;;;;;;;15.20;35.96;94747.38;10535356;28;1444;-59
2023/04/14 05:18:18;;;;;;;;;;;;;;;15.19;35.86;94748.41;10524312;28;1460;-59
2023/04/14 05:23:20;;;;;;;;;;;;;;;15.19;35.88;94745.00;10528495;28;1171;-58
2023/04/14 05:28:22;;;;;;;;;;;;;;;15.20;36.00;94749.19;10524737;28;1905;-59
2023/04/14 05:33:23;;;;;;;;;;;;;;;15.19;35.97;94758.06;10534287;28;1152;-59
2023/04/14 05:38:24;;;;;;;;;;;;;;;15.18;36.01;94739.03;10527168;28;1418;-59
2023/04/14 05:43:24;;;;;;;;;;;;;;;15.19;35.96;94737.16;10533903;28;1531;-59
2023/04/14 05:48:27;;;;;;;;;;;;;;;15.18;35.97;94740.84;10547976;28;1906;-59
2023/04/14 05:53:28;;;;;;;;;;;;;;;15.19;35.75;94726.72;10534817;28;1066;-58
2023/04/14 05:58:28;;;;;;;;;;;;;;;15.19;35.91;94724.13;10536716;28;1487;-59
2023/04/14 06:03:29;;;;;;;;;;;;;;;15.17;35.86;94727.00;10536939;28;1080;-59
2023/04/14 06:08:29;;;;;;;;;;;;;;;15.17;35.97;94729.59;10532228;28;1906;-59
2023/04/14 06:13:31;;;;;;;;;;;;;;;15.18;35.87;94740.84;10532899;28;1516;-59
2023/04/14 06:18:32;;;;;;;;;;;;;;;15.18;36.01;94753.88;10524541;28;1476;-60
2023/04/14 06:23:33;;;;;;;;;;;;;;;15.19;35.88;94745.00;10520877;28;1088;-59
2023/04/14 06:28:34;;;;;;;;;;;;;;;15.17;36.05;94744.47;10526767;28;1977;-59
2023/04/14 06:33:35;;;;;;;;;;;;;;;15.16;36.11;94738.50;10536180;28;1162;-59
2023/04/14 06:38:35;;;;;;;;;;;;;;;15.17;35.89;94739.25;10521910;28;1487;-59
2023/04/14 06:43:36;;;;;;;;;;;;;;;15.17;35.87;94750.50;10532150;28;1453;-59
2023/04/14 06:48:38;;;;;;;;;;;;;;;15.17;36.05;94750.50;10517256;28;1907;-59
2023/04/14 06:53:39;;;;;;;;;;;;;;;15.17;35.86;94749.69;10509375;28;1368;-60
2023/04/14 06:58:39;;;;;;;;;;;;;;;15.16;35.96;94740.31;10533126;28;1432;-59
2023/04/14 07:03:40;;;;;;;;;;;;;;;15.16;35.93;94737.72;10535011;28;1122;-59
2023/04/14 07:08:40;;;;;;;;;;;;;;;15.16;35.94;94735.09;10533510;28;1918;-59
2023/04/14 07:13:40;;;;;;;;;;;;;;;15.16;36.03;94737.72;10534315;28;1598;-58
2023/04/14 07:18:41;;;;;;;;;;;;;;;15.17;36.09;94739.25;10534097;28;1499;-59
2023/04/14 07:23:42;;;;;;;;;;;;;;;15.17;35.88;94734.03;10525962;28;1437;-60
2023/04/14 07:28:43;;;;;;;;;;;;;;;15.15;36.06;94734.31;10535313;28;1902;-59
2023/04/14 07:33:43;;;;;;;;;;;;;;;15.16;36.00;94740.31;10530337;28;1532;-59
2023/04/14 07:38:45;;;;;;;;;;;;;;;15.16;36.11;94743.72;10516509;28;1862;-59
2023/04/14 07:43:45;;;;;;;;;;;;;;;15.16;35.94;94745.53;10530743;28;1669;-59
2023/04/14 07:48:46;;;;;;;;;;;;;;;15.14;35.98;94748.41;10540557;28;1910;-59
2023/04/14 07:53:46;;;;;;;;;;;;;;;15.16;36.02;94759.38;10507606;28;1631;-59
2023/04/14 07:58:47;;;;;;;;;;;;;;;15.15;36.10;94755.19;10542846;28;1480;-57
2023/04/14 08:03:47;;;;;;;;;;;;;;;15.15;36.06;94757.00;10527583;28;1199;-60
2023/04/14 08:08:48;;;;;;;;;;;;;;;15.15;36.12;94762.22;10540462;28;1898;-59
2023/04/14 08:13:51;;;;;;;;;;;;;;;15.15;36.04;94768.25;10542167;28;1587;-59
2023/04/14 08:18:52;;;;;;;;;;;;;;;15.16;36.06;94780.25;10546890;28;1110;-59
2023/04/14 08:23:52;;;;;;;;;;;;;;;15.15;36.32;94786.50;10535107;28;1662;-59
2023/04/14 08:28:53;;;;;;;;;;;;;;;15.19;36.09;94794.59;10541601;28;1960;-59
2023/04/14 08:33:53;;;;;;;;;;;;;;;15.18;36.09;94785.22;10532968;28;1653;-59
2023/04/14 08:39:04;;;;;;;;;;;;;;;15.19;36.16;94791.97;10536291;28;1528;-60
2023/04/14 08:44:06;;;;;;;;;;;;;;;15.19;36.06;94784.16;10538998;28;1614;-60
2023/04/14 08:49:08;;;;;;;;;;;;;;;15.20;36.07;94780.50;10515612;28;1959;-60
2023/04/14 08:54:18;;;;;;;;;;;;;;;15.20;36.13;94785.72;10527428;28;1126;-60
2023/04/14 08:59:20;;;;;;;;;;;;;;;15.19;36.04;94789.38;10507429;28;1608;-60
2023/04/14 09:04:21;;;;;;;;;;;;;;;15.18;36.11;94786.00;10532275;28;1378;-60
2023/04/14 09:09:21;;;;;;;;;;;;;;;15.19;36.16;94773.72;10540221;28;1977;-60
2023/04/14 09:14:21;;;;;;;;;;;;;;;15.19;36.23;94752.81;10502319;28;1726;-61
2023/04/14 09:19:23;;;;;;;;;;;;;;;15.20;36.06;94759.63;10529903;28;1511;-60
2023/04/14 09:24:28;;;;;;;;;;;;;;;15.19;36.15;94766.66;10510031;28;1116;-59
2023/04/14 09:29:29;;;;;;;;;;;;;;;15.18;36.07;94765.13;10513144;28;1901;-60
2023/04/14 09:34:31;;;;;;;;;;;;;;;15.19;36.01;94755.44;10528333;28;1155;-59
2023/04/14 09:39:32;;;;;;;;;;;;;;;15.18;36.12;94744.25;10527740;28;1486;-59
2023/04/14 09:44:33;;;;;;;;;;;;;;;15.19;36.19;94764.06;10518215;28;1693;-63
2023/04/14 09:49:34;;;;;;;;;;;;;;;15.19;36.25;94764.06;10500621;28;1902;-60
2023/04/14 09:54:35;;;;;;;;;;;;;;;15.18;36.12;94788.63;10538180;28;1083;-59
2023/04/14 09:59:36;;;;;;;;;;;;;;;15.18;36.05;94782.59;10517837;28;1492;-59
2023/04/14 10:04:37;;;;;;;;;;;;;;;15.19;36.14;94790.16;10520147;28;1146;-60
2023/04/14 10:09:46;;;;;;;;;;;;;;;15.19;36.00;94779.72;10494853;28;1879;-59
2023/04/14 10:14:46;;;;;;;;;;;;;;;15.20;36.19;94776.09;10519767;28;1469;-59
2023/04/14 10:19:47;;;;;;;;;;;;;;;15.20;36.10;94778.69;10530998;28;1464;-59
2023/04/14 10:25:00;;;;;;;;;;;;;;;15.20;36.21;94783.13;10529265;28;1079;-59
2023/04/14 10:30:01;;;;;;;;;;;;;;;15.21;36.06;94782.06;10523210;28;1894;-59
2023/04/14 10:35:04;;;;;;;;;;;;;;;15.20;36.18;94781.31;10501096;28;1198;-59
2023/04/14 10:40:14;;;;;;;;;;;;;;;15.21;36.25;94772.41;10498829;28;1506;-59
2023/04/14 10:45:15;;;;;;;;;;;;;;;15.20;36.19;94770.06;10536390;28;1139;-60
2023/04/14 10:50:16;;;;;;;;;;;;;;;15.20;36.04;94760.41;10525354;28;1894;-59
2023/04/14 10:55:20;;;;;;;;;;;;;;;15.21;36.14;94761.97;10534979;28;1478;-60
2023/04/14 11:00:24;;;;;;;;;;;;;;;15.20;36.21;94754.41;10529817;28;1254;-59
2023/04/14 11:05:24;;;;;;;;;;;;;;;15.21;36.26;94737.69;10531966;28;1527;-59
2023/04/14 11:10:26;;;;;;;;;;;;;;;15.20;36.41;94723.09;10532261;28;2235;-59
2023/04/14 11:15:42;;;;;;;;;;;;;;;15.20;36.27;94707.41;10535848;28;1163;-59
2023/04/14 11:20:43;;;;;;;;;;;;;;;15.20;36.49;94687.31;10533208;28;1460;-60
2023/04/14 11:25:44;;;;;;;;;;;;;;;15.20;36.38;94695.16;10522702;28;1444;-62
2023/04/14 11:30:45;;;;;;;;;;;;;;;15.22;36.18;94685.22;10526101;28;1909;-60
2023/04/14 11:35:46;;;;;;;;;;;;;;;15.23;36.14;94697.22;10536230;28;1135;-60
2023/04/14 11:40:48;;;;;;;;;;;;;;;15.22;36.36;94690.44;10519596;28;1472;-60
2023/04/14 11:45:59;;;;;;;;;;;;;;;15.24;36.15;94693.59;10525284;28;1154;-59
2023/04/14 11:51:02;;;;;;;;;;;;;;;15.24;36.27;94666.69;10513011;28;1897;-60
2023/04/14 11:56:04;;;;;;;;;;;;;;;15.24;36.20;94667.47;10537193;28;1119;-59
2023/04/14 12:01:05;;;;;;;;;;;;;;;15.23;36.24;94676.34;10521855;28;1476;-58
2023/04/14 12:06:05;;;;;;;;;;;;;;;15.23;36.23;94696.44;10531667;28;1449;-59
2023/04/14 12:11:12;;;;;;;;;;;;;;;15.25;36.16;94694.38;10512531;28;1906;-60
2023/04/14 12:16:13;;;;;;;;;;;;;;;15.23;36.26;94689.41;10535518;28;1127;-60
2023/04/14 12:21:18;;;;;;;;;;;;;;;15.22;36.39;94687.84;10488322;28;1485;-58
2023/04/14 12:26:19;;;;;;;;;;;;;;;15.25;36.23;94670.88;10528549;28;1173;-58
2023/04/14 12:31:25;;;;;;;;;;;;;;;15.25;36.28;94661.19;10527503;28;1973;-58
2023/04/14 12:36:27;;;;;;;;;;;;;;;15.25;36.29;94660.44;10526378;28;1130;-58
2023/04/14 12:41:28;;;;;;;;;;;;;;;15.22;36.61;94650.50;10521588;28;1441;-58
2023/04/14 12:46:31;;;;;;;;;;;;;;;15.22;36.48;94653.13;10547408;28;1189;-58
2023/04/14 12:51:41;;;;;;;;;;;;;;;15.22;36.46;94642.69;10526740;28;2014;-58
2023/04/14 12:56:42;;;;;;;;;;;;;;;15.23;36.52;94625.94;10542425;28;1466;-58
2023/04/14 13:01:42;;;;;;;;;;;;;;;15.23;36.67;94645.00;10525911;28;1005;-58
2023/04/14 13:06:43;;;;;;;;;;;;;;;15.24;36.76;94646.59;10518098;28;1472;-58
2023/04/14 13:11:43;;;;;;;;;;;;;;;15.24;36.81;94641.38;10536715;28;1905;-59
2023/04/14 13:16:44;;;;;;;;;;;;;;;15.23;36.83;94649.44;10539822;28;1114;-58
2023/04/14 13:21:45;;;;;;;;;;;;;;;15.23;37.11;94639.00;10536114;28;1460;-58
2023/04/14 13:26:45;;;;;;;;;;;;;;;15.21;37.03;94631.44;10531899;28;1229;-58
2023/04/14 13:31:46;;;;;;;;;;;;;;;15.21;36.92;94630.66;10525853;28;1914;-59
2023/04/14 13:36:47;;;;;;;;;;;;;;;15.20;36.91;94629.09;10482433;28;1462;-59
2023/04/14 13:41:48;;;;;;;;;;;;;;;15.21;36.91;94625.44;10496653;28;1095;-58
2023/04/14 13:46:51;;;;;;;;;;;;;;;15.21;36.89;94621.00;10492935;28;1757;-59
2023/04/14 13:51:53;;;;;;;;;;;;;;;15.21;36.98;94625.44;10500554;28;1914;-59
2023/04/14 13:56:53;;;;;;;;;;;;;;;15.21;36.94;94618.41;10495972;28;1107;-59
2023/04/14 14:01:54;;;;;;;;;;;;;;;15.22;36.96;94616.56;10491880;28;1579;-59
2023/04/14 14:06:55;;;;;;;;;;;;;;;15.22;36.83;94617.38;10489228;28;1064;-59
2023/04/14 14:11:56;;;;;;;;;;;;;;;15.24;36.99;94609.25;10494290;28;1977;-59
2023/04/14 14:16:56;;;;;;;;;;;;;;;15.22;36.92;94601.69;10495345;28;1158;-59
2023/04/14 14:21:56;;;;;;;;;;;;;;;15.23;36.92;94592.81;10495123;28;1591;-59
2023/04/14 14:26:57;;;;;;;;;;;;;;;15.23;36.95;94592.81;10495610;28;1118;-60
2023/04/14 14:31:58;;;;;;;;;;;;;;;15.25;37.08;94595.16;10493960;28;1973;-59
2023/04/14 14:36:59;;;;;;;;;;;;;;;15.24;36.94;94596.19;10484641;28;1548;-59
2023/04/14 14:42:00;;;;;;;;;;;;;;;15.24;36.98;94593.59;10489857;28;1116;-59
2023/04/14 14:47:01;;;;;;;;;;;;;;;15.25;37.12;94600.38;10494910;28;1505;-59
2023/04/14 14:52:03;;;;;;;;;;;;;;;15.25;37.00;94601.16;10506986;28;1967;-59
2023/04/14 14:57:03;;;;;;;;;;;;;;;15.25;37.09;94589.94;10497954;28;1476;-59
2023/04/14 15:02:03;;;;;;;;;;;;;;;15.22;37.34;94591.25;10492152;28;1731;-59
2023/04/14 15:07:04;;;;;;;;;;;;;;;15.23;37.36;94584.97;10494166;28;1183;-59
2023/04/14 15:12:05;;;;;;;;;;;;;;;15.22;37.19;94582.63;10512538;28;1968;-59
2023/04/14 15:17:05;;;;;;;;;;;;;;;15.22;37.22;94580.03;10534841;28;1118;-59
2023/04/14 15:22:06;;;;;;;;;;;;;;;15.22;37.19;94572.19;10527635;28;1416;-59
2023/04/14 15:27:06;;;;;;;;;;;;;;;15.20;37.28;94577.69;10506728;28;1370;-59
2023/04/14 15:32:07;;;;;;;;;;;;;;;15.22;37.15;94580.03;10499816;28;1961;-59
2023/04/14 15:37:08;;;;;;;;;;;;;;;15.20;37.05;94577.69;10526744;28;1148;-59
2023/04/14 15:42:08;;;;;;;;;;;;;;;15.21;37.10;94604.56;10529416;28;1440;-59
2023/04/14 15:47:09;;;;;;;;;;;;;;;15.20;37.13;94606.41;10534550;28;1099;-59
2023/04/14 15:52:13;;;;;;;;;;;;;;;15.19;37.19;94609.25;10531091;28;1965;-59
2023/04/14 15:57:14;;;;;;;;;;;;;;;15.19;37.03;94604.81;10527798;28;1444;-65
2023/04/14 16:02:14;;;;;;;;;;;;;;;15.19;37.10;94615.28;10525535;28;1467;-59
2023/04/14 16:07:16;;;;;;;;;;;;;;;15.19;37.02;94614.47;10539828;28;1901;-59
2023/04/14 16:12:16;;;;;;;;;;;;;;;15.18;36.96;94599.88;10536468;28;1492;-59
2023/04/14 16:17:17;;;;;;;;;;;;;;;15.18;37.03;94599.88;10542184;28;1080;-59
2023/04/14 16:22:18;;;;;;;;;;;;;;;15.18;36.86;94589.44;10530318;28;1500;-59
2023/04/14 16:27:19;;;;;;;;;;;;;;;15.17;37.09;94585.25;10516514;28;3969;-59
2023/04/14 16:32:21;;;;;;;;;;;;;;;15.17;36.95;94593.88;10513334;28;1423;-59
2023/04/14 16:37:24;;;;;;;;;;;;;;;15.16;36.98;94601.97;10536599;28;1112;-60
2023/04/14 16:42:25;;;;;;;;;;;;;;;15.17;37.00;94598.31;10533110;28;1512;-59
2023/04/14 16:47:25;;;;;;;;;;;;;;;15.17;36.97;94598.31;10528106;28;1970;-59
2023/04/14 16:52:25;;;;;;;;;;;;;;;15.16;36.88;94600.16;10541460;28;1158;-59
2023/04/14 16:57:27;;;;;;;;;;;;;;;15.16;36.88;94600.16;10518639;28;1570;-60
2023/04/14 17:02:27;;;;;;;;;;;;;;;15.16;37.00;94601.97;10528256;28;1428;-59
2023/04/14 17:07:28;;;;;;;;;;;;;;;15.16;37.02;94601.97;10538845;28;1969;-60
2023/04/14 17:12:29;;;;;;;;;;;;;;;15.16;36.88;94597.53;10523760;28;1499;-59
2023/04/14 17:17:30;;;;;;;;;;;;;;;15.16;36.87;94601.97;10543666;28;1146;-60
2023/04/14 17:22:34;;;;;;;;;;;;;;;15.16;36.92;94607.19;10535058;28;1480;-60
2023/04/14 17:27:34;;;;;;;;;;;;;;;15.16;36.83;94623.66;10531558;28;1910;-59
2023/04/14 17:32:34;;;;;;;;;;;;;;;15.14;36.91;94651.06;10515506;28;1475;-59
2023/04/14 17:37:35;;;;;;;;;;;;;;;15.15;36.87;94631.72;10520395;28;1156;-59
2023/04/14 17:42:37;;;;;;;;;;;;;;;15.15;36.81;94635.13;10533294;28;1443;-59
2023/04/14 17:47:38;;;;;;;;;;;;;;;15.15;36.89;94621.28;10526524;28;1981;-59
2023/04/14 17:52:39;;;;;;;;;;;;;;;15.14;36.88;94620.53;10524195;28;1901;-59
2023/04/14 17:57:40;;;;;;;;;;;;;;;15.14;36.92;94615.31;10484616;28;1504;-59
2023/04/14 18:02:40;;;;;;;;;;;;;;;15.13;36.83;94615.53;10470494;28;1317;-59
2023/04/14 18:07:41;;;;;;;;;;;;;;;15.14;36.89;94615.31;10537562;28;1914;-59
2023/04/14 18:12:41;;;;;;;;;;;;;;;15.13;36.89;94618.94;10508327;28;1436;-60
2023/04/14 18:17:42;;;;;;;;;;;;;;;15.13;36.77;94620.75;10528085;28;1111;-60
2023/04/14 18:22:42;;;;;;;;;;;;;;;15.14;36.95;94614.50;10530313;28;1641;-60
2023/04/14 18:27:43;;;;;;;;;;;;;;;15.13;36.80;94623.38;10515833;28;1965;-60
2023/04/14 18:32:43;;;;;;;;;;;;;;;15.13;36.92;94628.59;10512406;28;1589;-59
2023/04/14 18:37:45;;;;;;;;;;;;;;;15.14;36.76;94623.13;10527455;28;1158;-60
2023/04/14 18:42:47;;;;;;;;;;;;;;;15.15;36.73;94626.50;10512674;28;1511;-59
2023/04/14 18:47:48;;;;;;;;;;;;;;;15.15;36.61;94636.94;10506672;28;1972;-59
2023/04/14 18:52:49;;;;;;;;;;;;;;;15.13;36.85;94647.66;10533441;28;1523;-59
2023/04/14 18:57:51;;;;;;;;;;;;;;;15.13;36.73;94684.19;10536830;28;1142;-59
2023/04/14 19:02:51;;;;;;;;;;;;;;;15.16;36.83;94680.28;10515560;28;1445;-60
2023/04/14 19:07:52;;;;;;;;;;;;;;;15.13;36.67;94681.59;10534832;28;2084;-60
2023/04/14 19:12:53;;;;;;;;;;;;;;;15.14;36.77;94677.16;10514108;28;1504;-60
2023/04/14 19:17:54;;;;;;;;;;;;;;;15.16;36.73;94680.28;10534781;28;1102;-60
2023/04/14 19:22:55;;;;;;;;;;;;;;;15.14;36.71;94690.22;10516509;28;1547;-60
2023/04/14 19:27:58;;;;;;;;;;;;;;;15.15;36.63;94686.53;10529120;28;1959;-60
2023/04/14 19:33:00;;;;;;;;;;;;;;;15.14;36.76;94696.22;10496064;28;1617;-59
2023/04/14 19:38:01;;;;;;;;;;;;;;;15.15;36.67;94676.09;10534391;28;1226;-60
2023/04/14 19:43:03;;;;;;;;;;;;;;;15.15;36.61;94678.69;10520290;28;1488;-59
2023/04/14 19:48:04;;;;;;;;;;;;;;;15.14;36.56;94675.34;10525304;28;1947;-60
2023/04/14 19:53:05;;;;;;;;;;;;;;;15.14;36.56;94670.13;10505975;28;1813;-59
2023/04/14 19:58:06;;;;;;;;;;;;;;;15.14;36.68;94671.94;10521532;28;1405;-61
2023/04/14 20:03:06;;;;;;;;;;;;;;;15.14;36.58;94661.50;10499262;28;1404;-60
2023/04/14 20:08:15;;;;;;;;;;;;;;;15.15;36.67;94671.66;10533686;28;1906;-61
2023/04/14 20:13:20;;;;;;;;;;;;;;;15.14;36.69;94666.72;10530929;28;1519;-60
2023/04/14 20:18:25;;;;;;;;;;;;;;;15.14;36.54;94657.06;10533556;28;1161;-60
2023/04/14 20:23:25;;;;;;;;;;;;;;;15.14;36.60;94651.06;10519152;28;1515;-62
2023/04/14 20:28:26;;;;;;;;;;;;;;;15.14;36.56;94651.84;10523864;28;1960;-62
2023/04/14 20:33:27;;;;;;;;;;;;;;;15.14;36.59;94651.06;10519188;28;1424;-60
2023/04/14 20:38:28;;;;;;;;;;;;;;;15.14;36.66;94651.84;10534641;28;1040;-60
2023/04/14 20:43:40;;;;;;;;;;;;;;;15.13;36.73;94655.47;10529680;28;1460;-60
2023/04/14 20:48:41;;;;;;;;;;;;;;;15.13;36.50;94645.03;10520269;28;1969;-59
2023/04/14 20:53:42;;;;;;;;;;;;;;;15.13;36.64;94644.25;10535751;28;1154;-59
2023/04/14 20:58:43;;;;;;;;;;;;;;;15.12;36.60;94643.50;10525995;28;1480;-60
2023/04/14 21:03:44;;;;;;;;;;;;;;;15.13;36.60;94633.81;10514544;28;1440;-60
2023/04/14 21:08:44;;;;;;;;;;;;;;;15.11;36.69;94639.31;10540825;28;1976;-60
2023/04/14 21:13:45;;;;;;;;;;;;;;;15.11;36.69;94630.69;10531514;28;1507;-59
2023/04/14 21:18:45;;;;;;;;;;;;;;;15.11;36.61;94625.47;10541869;28;1114;-59
2023/04/14 21:23:45;;;;;;;;;;;;;;;15.11;36.53;94635.91;10526916;28;1614;-59
2023/04/14 21:28:46;;;;;;;;;;;;;;;15.10;36.60;94623.94;10518085;28;1914;-59
2023/04/14 21:33:46;;;;;;;;;;;;;;;15.10;36.71;94621.31;10526180;28;1496;-59
2023/04/14 21:38:47;;;;;;;;;;;;;;;15.10;36.50;94627.31;10546651;28;1115;-59
2023/04/14 21:43:47;;;;;;;;;;;;;;;15.09;36.61;94628.34;10536833;28;1444;-59
2023/04/14 21:48:48;;;;;;;;;;;;;;;15.10;36.61;94627.31;10543987;28;1957;-60
2023/04/14 21:53:48;;;;;;;;;;;;;;;15.10;36.61;94623.94;10498935;28;1615;-59
2023/04/14 21:58:49;;;;;;;;;;;;;;;15.10;36.62;94618.69;10535395;28;1460;-59
2023/04/14 22:03:50;;;;;;;;;;;;;;;15.09;36.68;94620.53;10521623;28;1376;-59
2023/04/14 22:08:50;;;;;;;;;;;;;;;15.10;36.74;94622.09;10528454;28;1878;-59
2023/04/14 22:13:54;;;;;;;;;;;;;;;15.08;36.57;94616.38;10538134;28;1162;-57
2023/04/14 22:18:55;;;;;;;;;;;;;;;15.10;36.56;94616.09;10529018;28;1492;-59
2023/04/14 22:23:56;;;;;;;;;;;;;;;15.10;36.51;94616.09;10533578;28;1161;-59
2023/04/14 22:28:56;;;;;;;;;;;;;;;15.08;36.61;94607.75;10519829;28;1981;-59
2023/04/14 22:33:57;;;;;;;;;;;;;;;15.08;36.61;94610.34;10519565;28;1456;-59
2023/04/14 22:38:57;;;;;;;;;;;;;;;15.07;36.58;94612.19;10536243;28;1102;-59
2023/04/14 22:43:57;;;;;;;;;;;;;;;15.07;36.77;94606.97;10519043;28;1685;-60
2023/04/14 22:48:57;;;;;;;;;;;;;;;15.06;36.72;94607.22;10536695;28;1905;-59
2023/04/14 22:53:58;;;;;;;;;;;;;;;15.09;36.63;94598.84;10528201;28;1663;-59
2023/04/14 22:58:58;;;;;;;;;;;;;;;15.07;36.46;94598.34;10520310;28;1441;-59
2023/04/14 23:03:59;;;;;;;;;;;;;;;15.08;36.70;94599.91;10518544;28;1495;-59
2023/04/14 23:08:59;;;;;;;;;;;;;;;15.07;36.62;94599.13;10529762;28;1902;-60
2023/04/14 23:14:01;;;;;;;;;;;;;;;15.07;36.64;94601.75;10516580;28;1166;-59
2023/04/14 23:19:01;;;;;;;;;;;;;;;15.06;36.61;94602.81;10526648;28;1516;-59
2023/04/14 23:24:03;;;;;;;;;;;;;;;15.07;36.68;94603.56;10526628;28;1106;-59
2023/04/14 23:29:04;;;;;;;;;;;;;;;15.06;36.76;94599.41;10524082;28;1898;-59
2023/04/14 23:34:08;;;;;;;;;;;;;;;15.06;36.70;94594.97;10517954;28;1436;-59
2023/04/14 23:39:09;;;;;;;;;;;;;;;15.06;36.71;94602.81;10520161;28;1352;-60
2023/04/14 23:44:09;;;;;;;;;;;;;;;15.05;36.75;94585.56;10529515;28;1693;-59
2023/04/14 23:49:10;;;;;;;;;;;;;;;15.06;36.61;94594.19;10529998;28;1902;-59
2023/04/14 23:54:11;;;;;;;;;;;;;;;15.05;36.70;94582.97;10516309;28;1158;-59
2023/04/14 23:59:11;;;;;;;;;;;;;;;15.06;36.73;94578.53;10517302;28;1489;-59
